sensor_id;sensor_type;location;lat;lon;timestamp;P1;durP1;ratioP1;P2;durP2;ratioP2
81056;SDS011;70563;50.084;14.468;2023-11-19T00:00:05;12.63;;;7.00;;
81056;SDS011;70563;50.084;14.468;2023-11-19T00:02:31;12.15;;;6.45;;
81056;SDS011;70563;50.084;14.468;2023-11-19T00:04:57;9.00;;;5.35;;
81056;SDS011;70563;50.084;14.468;2023-11-19T00:07:23;8.63;;;4.60;;
81056;SDS011;70563;50.084;14.468;2023-11-19T00:09:48;12.00;;;6.68;;
81056;SDS011;70563;50.084;14.468;2023-11-19T00:12:14;12.02;;;7.13;;
81056;SDS011;70563;50.084;14.468;2023-11-19T00:14:40;14.32;;;6.57;;
81056;SDS011;70563;50.084;14.468;2023-11-19T00:17:06;11.88;;;7.03;;
81056;SDS011;70563;50.084;14.468;2023-11-19T00:19:31;16.25;;;6.80;;
81056;SDS011;70563;50.084;14.468;2023-11-19T00:21:56;11.30;;;6.93;;
81056;SDS011;70563;50.084;14.468;2023-11-19T00:24:22;13.32;;;7.20;;
81056;SDS011;70563;50.084;14.468;2023-11-19T00:26:47;14.48;;;8.23;;
81056;SDS011;70563;50.084;14.468;2023-11-19T00:29:12;14.30;;;7.22;;
81056;SDS011;70563;50.084;14.468;2023-11-19T00:31:39;13.15;;;6.38;;
81056;SDS011;70563;50.084;14.468;2023-11-19T00:34:04;12.18;;;6.10;;
81056;SDS011;70563;50.084;14.468;2023-11-19T00:36:31;13.65;;;6.55;;
81056;SDS011;70563;50.084;14.468;2023-11-19T00:38:56;13.52;;;7.35;;
81056;SDS011;70563;50.084;14.468;2023-11-19T00:41:22;11.45;;;6.93;;
81056;SDS011;70563;50.084;14.468;2023-11-19T00:43:47;13.50;;;7.05;;
81056;SDS011;70563;50.084;14.468;2023-11-19T00:46:13;13.18;;;7.15;;
81056;SDS011;70563;50.084;14.468;2023-11-19T00:48:41;12.25;;;7.03;;
81056;SDS011;70563;50.084;14.468;2023-11-19T00:51:06;9.52;;;6.13;;
81056;SDS011;70563;50.084;14.468;2023-11-19T00:53:32;14.05;;;7.57;;
81056;SDS011;70563;50.084;14.468;2023-11-19T00:55:59;12.00;;;6.43;;
81056;SDS011;70563;50.084;14.468;2023-11-19T00:58:24;12.15;;;6.88;;
81056;SDS011;70563;50.084;14.468;2023-11-19T01:00:50;12.02;;;6.97;;
81056;SDS011;70563;50.084;14.468;2023-11-19T01:03:15;11.63;;;6.93;;
81056;SDS011;70563;50.084;14.468;2023-11-19T01:05:43;10.50;;;5.75;;
81056;SDS011;70563;50.084;14.468;2023-11-19T01:08:09;14.68;;;7.18;;
81056;SDS011;70563;50.084;14.468;2023-11-19T01:10:36;12.80;;;6.80;;
81056;SDS011;70563;50.084;14.468;2023-11-19T01:13:02;10.05;;;6.82;;
81056;SDS011;70563;50.084;14.468;2023-11-19T01:15:30;10.48;;;5.63;;
81056;SDS011;70563;50.084;14.468;2023-11-19T01:17:56;8.45;;;5.03;;
81056;SDS011;70563;50.084;14.468;2023-11-19T01:20:21;13.38;;;6.60;;
81056;SDS011;70563;50.084;14.468;2023-11-19T01:22:47;8.80;;;5.47;;
81056;SDS011;70563;50.084;14.468;2023-11-19T01:25:13;10.90;;;6.05;;
81056;SDS011;70563;50.084;14.468;2023-11-19T01:27:39;12.38;;;6.40;;
81056;SDS011;70563;50.084;14.468;2023-11-19T01:30:04;8.40;;;5.75;;
81056;SDS011;70563;50.084;14.468;2023-11-19T01:32:31;12.25;;;6.75;;
81056;SDS011;70563;50.084;14.468;2023-11-19T01:34:56;12.32;;;6.05;;
81056;SDS011;70563;50.084;14.468;2023-11-19T01:37:22;10.93;;;6.72;;
81056;SDS011;70563;50.084;14.468;2023-11-19T01:39:47;9.57;;;5.70;;
81056;SDS011;70563;50.084;14.468;2023-11-19T01:42:13;9.55;;;6.10;;
81056;SDS011;70563;50.084;14.468;2023-11-19T01:44:38;8.50;;;4.75;;
81056;SDS011;70563;50.084;14.468;2023-11-19T01:47:03;9.55;;;5.70;;
81056;SDS011;70563;50.084;14.468;2023-11-19T01:49:30;8.70;;;5.75;;
81056;SDS011;70563;50.084;14.468;2023-11-19T01:51:57;7.25;;;4.63;;
81056;SDS011;70563;50.084;14.468;2023-11-19T01:54:23;6.63;;;4.57;;
81056;SDS011;70563;50.084;14.468;2023-11-19T01:56:49;7.53;;;5.22;;
81056;SDS011;70563;50.084;14.468;2023-11-19T01:59:15;8.27;;;4.63;;
81056;SDS011;70563;50.084;14.468;2023-11-19T02:01:41;10.35;;;5.82;;
81056;SDS011;70563;50.084;14.468;2023-11-19T02:04:07;9.70;;;5.18;;
81056;SDS011;70563;50.084;14.468;2023-11-19T02:06:34;9.05;;;5.20;;
81056;SDS011;70563;50.084;14.468;2023-11-19T02:09:02;8.90;;;5.35;;
81056;SDS011;70563;50.084;14.468;2023-11-19T02:11:32;9.13;;;5.40;;
81056;SDS011;70563;50.084;14.468;2023-11-19T02:13:58;9.00;;;4.90;;
81056;SDS011;70563;50.084;14.468;2023-11-19T02:16:24;9.07;;;5.13;;
81056;SDS011;70563;50.084;14.468;2023-11-19T02:18:49;9.57;;;5.57;;
81056;SDS011;70563;50.084;14.468;2023-11-19T02:21:14;9.27;;;4.43;;
81056;SDS011;70563;50.084;14.468;2023-11-19T02:23:40;10.55;;;5.45;;
81056;SDS011;70563;50.084;14.468;2023-11-19T02:28:51;8.38;;;5.32;;
81056;SDS011;70563;50.084;14.468;2023-11-19T02:31:17;12.20;;;6.45;;
81056;SDS011;70563;50.084;14.468;2023-11-19T02:33:45;8.05;;;5.43;;
81056;SDS011;70563;50.084;14.468;2023-11-19T02:36:10;8.45;;;4.90;;
81056;SDS011;70563;50.084;14.468;2023-11-19T02:38:36;9.38;;;4.88;;
81056;SDS011;70563;50.084;14.468;2023-11-19T02:41:03;10.00;;;6.72;;
81056;SDS011;70563;50.084;14.468;2023-11-19T02:43:31;9.50;;;5.57;;
81056;SDS011;70563;50.084;14.468;2023-11-19T02:46:00;9.18;;;6.45;;
81056;SDS011;70563;50.084;14.468;2023-11-19T02:48:26;11.52;;;6.43;;
81056;SDS011;70563;50.084;14.468;2023-11-19T02:50:51;11.57;;;6.70;;
81056;SDS011;70563;50.084;14.468;2023-11-19T02:53:17;10.82;;;6.20;;
81056;SDS011;70563;50.084;14.468;2023-11-19T02:55:43;8.02;;;4.68;;
81056;SDS011;70563;50.084;14.468;2023-11-19T02:58:13;10.50;;;5.97;;
81056;SDS011;70563;50.084;14.468;2023-11-19T03:00:45;11.10;;;6.32;;
81056;SDS011;70563;50.084;14.468;2023-11-19T03:03:21;10.88;;;6.53;;
81056;SDS011;70563;50.084;14.468;2023-11-19T03:05:48;8.43;;;5.18;;
81056;SDS011;70563;50.084;14.468;2023-11-19T03:08:14;11.57;;;5.70;;
81056;SDS011;70563;50.084;14.468;2023-11-19T03:10:41;9.20;;;6.10;;
81056;SDS011;70563;50.084;14.468;2023-11-19T03:13:08;11.18;;;6.38;;
81056;SDS011;70563;50.084;14.468;2023-11-19T03:15:38;8.43;;;5.13;;
81056;SDS011;70563;50.084;14.468;2023-11-19T03:18:03;11.85;;;6.90;;
81056;SDS011;70563;50.084;14.468;2023-11-19T03:20:29;9.02;;;5.80;;
81056;SDS011;70563;50.084;14.468;2023-11-19T03:22:55;9.13;;;5.63;;
81056;SDS011;70563;50.084;14.468;2023-11-19T03:25:20;11.52;;;6.90;;
81056;SDS011;70563;50.084;14.468;2023-11-19T03:27:46;11.38;;;6.70;;
81056;SDS011;70563;50.084;14.468;2023-11-19T03:30:11;10.70;;;6.45;;
81056;SDS011;70563;50.084;14.468;2023-11-19T03:32:37;8.70;;;5.75;;
81056;SDS011;70563;50.084;14.468;2023-11-19T03:35:03;8.80;;;4.47;;
81056;SDS011;70563;50.084;14.468;2023-11-19T03:37:32;9.43;;;5.38;;
81056;SDS011;70563;50.084;14.468;2023-11-19T03:39:57;8.00;;;5.78;;
81056;SDS011;70563;50.084;14.468;2023-11-19T03:42:25;9.27;;;5.57;;
81056;SDS011;70563;50.084;14.468;2023-11-19T03:44:52;8.15;;;5.60;;
81056;SDS011;70563;50.084;14.468;2023-11-19T03:47:17;8.93;;;5.70;;
81056;SDS011;70563;50.084;14.468;2023-11-19T03:49:46;8.10;;;5.10;;
81056;SDS011;70563;50.084;14.468;2023-11-19T03:52:13;8.02;;;4.90;;
81056;SDS011;70563;50.084;14.468;2023-11-19T03:54:39;9.85;;;5.60;;
81056;SDS011;70563;50.084;14.468;2023-11-19T03:57:04;6.40;;;4.82;;
81056;SDS011;70563;50.084;14.468;2023-11-19T03:59:30;9.13;;;5.40;;
81056;SDS011;70563;50.084;14.468;2023-11-19T04:01:55;7.20;;;5.32;;
81056;SDS011;70563;50.084;14.468;2023-11-19T04:04:22;8.48;;;5.50;;
81056;SDS011;70563;50.084;14.468;2023-11-19T04:06:47;7.32;;;5.22;;
81056;SDS011;70563;50.084;14.468;2023-11-19T04:09:13;9.10;;;5.00;;
81056;SDS011;70563;50.084;14.468;2023-11-19T04:11:38;8.20;;;5.43;;
81056;SDS011;70563;50.084;14.468;2023-11-19T04:14:05;7.13;;;4.85;;
81056;SDS011;70563;50.084;14.468;2023-11-19T04:16:30;12.02;;;4.45;;
81056;SDS011;70563;50.084;14.468;2023-11-19T04:18:56;8.20;;;4.75;;
81056;SDS011;70563;50.084;14.468;2023-11-19T04:21:21;5.95;;;3.75;;
81056;SDS011;70563;50.084;14.468;2023-11-19T04:23:48;8.80;;;5.03;;
81056;SDS011;70563;50.084;14.468;2023-11-19T04:26:13;10.20;;;4.35;;
81056;SDS011;70563;50.084;14.468;2023-11-19T04:28:38;8.90;;;4.35;;
81056;SDS011;70563;50.084;14.468;2023-11-19T04:31:04;6.25;;;3.67;;
81056;SDS011;70563;50.084;14.468;2023-11-19T04:33:31;7.20;;;4.43;;
81056;SDS011;70563;50.084;14.468;2023-11-19T04:35:56;6.57;;;4.30;;
81056;SDS011;70563;50.084;14.468;2023-11-19T04:38:21;6.25;;;4.50;;
81056;SDS011;70563;50.084;14.468;2023-11-19T04:40:47;5.18;;;3.28;;
81056;SDS011;70563;50.084;14.468;2023-11-19T04:43:12;10.25;;;5.80;;
81056;SDS011;70563;50.084;14.468;2023-11-19T04:45:38;8.82;;;4.88;;
81056;SDS011;70563;50.084;14.468;2023-11-19T04:48:04;7.53;;;5.35;;
81056;SDS011;70563;50.084;14.468;2023-11-19T04:50:30;7.13;;;5.25;;
81056;SDS011;70563;50.084;14.468;2023-11-19T04:52:56;7.57;;;4.63;;
81056;SDS011;70563;50.084;14.468;2023-11-19T04:55:21;9.00;;;5.45;;
81056;SDS011;70563;50.084;14.468;2023-11-19T04:57:47;6.20;;;3.83;;
81056;SDS011;70563;50.084;14.468;2023-11-19T05:00:13;8.07;;;4.35;;
81056;SDS011;70563;50.084;14.468;2023-11-19T05:02:38;9.80;;;5.88;;
81056;SDS011;70563;50.084;14.468;2023-11-19T05:05:04;8.98;;;5.35;;
81056;SDS011;70563;50.084;14.468;2023-11-19T05:07:30;6.90;;;4.30;;
81056;SDS011;70563;50.084;14.468;2023-11-19T05:09:55;7.72;;;4.32;;
81056;SDS011;70563;50.084;14.468;2023-11-19T05:12:21;5.93;;;3.85;;
81056;SDS011;70563;50.084;14.468;2023-11-19T05:14:47;5.03;;;3.55;;
81056;SDS011;70563;50.084;14.468;2023-11-19T05:17:15;8.05;;;5.35;;
81056;SDS011;70563;50.084;14.468;2023-11-19T05:19:44;8.43;;;5.18;;
81056;SDS011;70563;50.084;14.468;2023-11-19T05:22:10;9.85;;;5.78;;
81056;SDS011;70563;50.084;14.468;2023-11-19T05:24:35;8.95;;;5.57;;
81056;SDS011;70563;50.084;14.468;2023-11-19T05:27:01;11.38;;;5.78;;
81056;SDS011;70563;50.084;14.468;2023-11-19T05:29:26;6.70;;;4.32;;
81056;SDS011;70563;50.084;14.468;2023-11-19T05:31:52;9.77;;;5.28;;
81056;SDS011;70563;50.084;14.468;2023-11-19T05:34:19;10.70;;;5.60;;
81056;SDS011;70563;50.084;14.468;2023-11-19T05:36:45;5.65;;;3.95;;
81056;SDS011;70563;50.084;14.468;2023-11-19T05:39:10;3.58;;;2.58;;
81056;SDS011;70563;50.084;14.468;2023-11-19T05:41:36;9.25;;;5.13;;
81056;SDS011;70563;50.084;14.468;2023-11-19T05:44:01;8.85;;;5.50;;
81056;SDS011;70563;50.084;14.468;2023-11-19T05:46:27;8.25;;;5.07;;
81056;SDS011;70563;50.084;14.468;2023-11-19T05:48:52;10.90;;;5.53;;
81056;SDS011;70563;50.084;14.468;2023-11-19T05:51:17;9.30;;;5.47;;
81056;SDS011;70563;50.084;14.468;2023-11-19T05:53:43;8.57;;;5.40;;
81056;SDS011;70563;50.084;14.468;2023-11-19T05:56:10;9.50;;;5.93;;
81056;SDS011;70563;50.084;14.468;2023-11-19T05:58:36;8.90;;;5.35;;
81056;SDS011;70563;50.084;14.468;2023-11-19T06:01:02;6.93;;;4.47;;
81056;SDS011;70563;50.084;14.468;2023-11-19T06:03:28;8.38;;;4.97;;
81056;SDS011;70563;50.084;14.468;2023-11-19T06:05:54;11.40;;;5.30;;
81056;SDS011;70563;50.084;14.468;2023-11-19T06:08:19;8.45;;;4.72;;
81056;SDS011;70563;50.084;14.468;2023-11-19T06:10:45;9.63;;;5.35;;
81056;SDS011;70563;50.084;14.468;2023-11-19T06:13:12;8.38;;;4.93;;
81056;SDS011;70563;50.084;14.468;2023-11-19T06:15:41;8.00;;;4.72;;
81056;SDS011;70563;50.084;14.468;2023-11-19T06:18:07;11.13;;;6.50;;
81056;SDS011;70563;50.084;14.468;2023-11-19T06:20:33;10.45;;;6.40;;
81056;SDS011;70563;50.084;14.468;2023-11-19T06:22:59;13.02;;;7.05;;
81056;SDS011;70563;50.084;14.468;2023-11-19T06:25:25;8.73;;;5.22;;
81056;SDS011;70563;50.084;14.468;2023-11-19T06:27:51;10.68;;;5.57;;
81056;SDS011;70563;50.084;14.468;2023-11-19T06:30:17;10.10;;;4.10;;
81056;SDS011;70563;50.084;14.468;2023-11-19T06:32:43;10.52;;;6.78;;
81056;SDS011;70563;50.084;14.468;2023-11-19T06:35:08;12.15;;;7.07;;
81056;SDS011;70563;50.084;14.468;2023-11-19T06:37:34;14.13;;;6.70;;
81056;SDS011;70563;50.084;14.468;2023-11-19T06:40:00;12.32;;;7.18;;
81056;SDS011;70563;50.084;14.468;2023-11-19T06:42:26;13.38;;;8.13;;
81056;SDS011;70563;50.084;14.468;2023-11-19T06:44:51;14.13;;;7.40;;
81056;SDS011;70563;50.084;14.468;2023-11-19T06:47:17;12.63;;;6.93;;
81056;SDS011;70563;50.084;14.468;2023-11-19T06:49:46;16.77;;;9.15;;
81056;SDS011;70563;50.084;14.468;2023-11-19T06:52:11;16.20;;;7.72;;
81056;SDS011;70563;50.084;14.468;2023-11-19T06:54:38;15.45;;;8.40;;
81056;SDS011;70563;50.084;14.468;2023-11-19T06:57:04;13.35;;;7.13;;
81056;SDS011;70563;50.084;14.468;2023-11-19T06:59:30;15.80;;;7.88;;
81056;SDS011;70563;50.084;14.468;2023-11-19T07:01:55;9.45;;;5.30;;
81056;SDS011;70563;50.084;14.468;2023-11-19T07:04:21;11.35;;;6.43;;
81056;SDS011;70563;50.084;14.468;2023-11-19T07:06:46;14.38;;;7.05;;
81056;SDS011;70563;50.084;14.468;2023-11-19T07:09:13;12.25;;;6.05;;
81056;SDS011;70563;50.084;14.468;2023-11-19T07:11:39;12.13;;;6.78;;
81056;SDS011;70563;50.084;14.468;2023-11-19T07:14:05;11.48;;;6.25;;
81056;SDS011;70563;50.084;14.468;2023-11-19T07:16:32;9.38;;;5.82;;
81056;SDS011;70563;50.084;14.468;2023-11-19T07:18:59;12.23;;;5.57;;
81056;SDS011;70563;50.084;14.468;2023-11-19T07:21:25;10.02;;;5.97;;
81056;SDS011;70563;50.084;14.468;2023-11-19T07:23:53;8.57;;;5.28;;
81056;SDS011;70563;50.084;14.468;2023-11-19T07:26:19;10.68;;;6.22;;
81056;SDS011;70563;50.084;14.468;2023-11-19T07:28:44;9.95;;;5.45;;
81056;SDS011;70563;50.084;14.468;2023-11-19T07:31:10;8.93;;;5.53;;
81056;SDS011;70563;50.084;14.468;2023-11-19T07:33:35;9.35;;;5.05;;
81056;SDS011;70563;50.084;14.468;2023-11-19T07:36:01;11.18;;;5.68;;
81056;SDS011;70563;50.084;14.468;2023-11-19T07:38:26;7.35;;;5.07;;
81056;SDS011;70563;50.084;14.468;2023-11-19T07:40:52;7.32;;;4.60;;
81056;SDS011;70563;50.084;14.468;2023-11-19T07:43:17;8.85;;;5.82;;
81056;SDS011;70563;50.084;14.468;2023-11-19T07:45:43;6.18;;;4.07;;
81056;SDS011;70563;50.084;14.468;2023-11-19T07:48:11;8.25;;;4.00;;
81056;SDS011;70563;50.084;14.468;2023-11-19T07:50:38;8.32;;;5.07;;
81056;SDS011;70563;50.084;14.468;2023-11-19T07:53:05;7.40;;;4.50;;
81056;SDS011;70563;50.084;14.468;2023-11-19T07:55:32;7.40;;;4.70;;
81056;SDS011;70563;50.084;14.468;2023-11-19T07:57:58;9.13;;;5.00;;
81056;SDS011;70563;50.084;14.468;2023-11-19T08:00:23;9.50;;;5.30;;
81056;SDS011;70563;50.084;14.468;2023-11-19T08:02:48;7.18;;;5.32;;
81056;SDS011;70563;50.084;14.468;2023-11-19T08:05:13;6.93;;;3.83;;
81056;SDS011;70563;50.084;14.468;2023-11-19T08:07:39;9.57;;;5.53;;
81056;SDS011;70563;50.084;14.468;2023-11-19T08:10:04;8.80;;;5.10;;
81056;SDS011;70563;50.084;14.468;2023-11-19T08:12:30;9.43;;;5.65;;
81056;SDS011;70563;50.084;14.468;2023-11-19T08:14:56;9.02;;;5.05;;
81056;SDS011;70563;50.084;14.468;2023-11-19T08:17:23;10.00;;;6.20;;
81056;SDS011;70563;50.084;14.468;2023-11-19T08:19:49;9.77;;;5.63;;
81056;SDS011;70563;50.084;14.468;2023-11-19T08:22:14;9.82;;;5.30;;
81056;SDS011;70563;50.084;14.468;2023-11-19T08:24:41;9.20;;;5.20;;
81056;SDS011;70563;50.084;14.468;2023-11-19T08:27:07;8.82;;;5.35;;
81056;SDS011;70563;50.084;14.468;2023-11-19T08:29:33;8.45;;;5.75;;
81056;SDS011;70563;50.084;14.468;2023-11-19T08:32:00;9.35;;;5.55;;
81056;SDS011;70563;50.084;14.468;2023-11-19T08:34:26;11.43;;;6.15;;
81056;SDS011;70563;50.084;14.468;2023-11-19T08:36:52;9.27;;;5.18;;
81056;SDS011;70563;50.084;14.468;2023-11-19T08:39:20;7.78;;;5.22;;
81056;SDS011;70563;50.084;14.468;2023-11-19T08:41:46;7.60;;;4.95;;
81056;SDS011;70563;50.084;14.468;2023-11-19T08:44:15;9.90;;;5.30;;
81056;SDS011;70563;50.084;14.468;2023-11-19T08:46:50;8.95;;;4.93;;
81056;SDS011;70563;50.084;14.468;2023-11-19T08:49:15;9.70;;;6.13;;
81056;SDS011;70563;50.084;14.468;2023-11-19T08:51:41;7.78;;;5.47;;
81056;SDS011;70563;50.084;14.468;2023-11-19T08:54:06;9.65;;;5.57;;
81056;SDS011;70563;50.084;14.468;2023-11-19T08:56:32;8.80;;;5.10;;
81056;SDS011;70563;50.084;14.468;2023-11-19T08:58:59;8.95;;;5.63;;
81056;SDS011;70563;50.084;14.468;2023-11-19T09:01:25;8.00;;;4.90;;
81056;SDS011;70563;50.084;14.468;2023-11-19T09:03:50;9.65;;;5.50;;
81056;SDS011;70563;50.084;14.468;2023-11-19T09:06:16;7.68;;;5.40;;
81056;SDS011;70563;50.084;14.468;2023-11-19T09:08:44;6.40;;;4.28;;
81056;SDS011;70563;50.084;14.468;2023-11-19T09:11:10;7.50;;;4.82;;
81056;SDS011;70563;50.084;14.468;2023-11-19T09:13:35;6.60;;;4.82;;
81056;SDS011;70563;50.084;14.468;2023-11-19T09:16:01;6.88;;;4.93;;
81056;SDS011;70563;50.084;14.468;2023-11-19T09:18:28;7.32;;;5.43;;
81056;SDS011;70563;50.084;14.468;2023-11-19T09:20:54;8.57;;;5.03;;
81056;SDS011;70563;50.084;14.468;2023-11-19T09:23:20;8.25;;;5.18;;
81056;SDS011;70563;50.084;14.468;2023-11-19T09:25:45;8.60;;;5.38;;
81056;SDS011;70563;50.084;14.468;2023-11-19T09:28:10;6.80;;;4.20;;
81056;SDS011;70563;50.084;14.468;2023-11-19T09:30:36;6.75;;;4.88;;
81056;SDS011;70563;50.084;14.468;2023-11-19T09:33:01;10.60;;;6.35;;
81056;SDS011;70563;50.084;14.468;2023-11-19T09:35:27;9.00;;;5.28;;
81056;SDS011;70563;50.084;14.468;2023-11-19T09:37:52;7.15;;;4.63;;
81056;SDS011;70563;50.084;14.468;2023-11-19T09:40:18;7.65;;;4.25;;
81056;SDS011;70563;50.084;14.468;2023-11-19T09:42:43;7.53;;;5.15;;
81056;SDS011;70563;50.084;14.468;2023-11-19T09:45:13;6.85;;;4.78;;
81056;SDS011;70563;50.084;14.468;2023-11-19T09:47:44;6.40;;;3.83;;
81056;SDS011;70563;50.084;14.468;2023-11-19T09:50:17;6.10;;;4.00;;
81056;SDS011;70563;50.084;14.468;2023-11-19T09:52:44;6.88;;;4.03;;
81056;SDS011;70563;50.084;14.468;2023-11-19T09:55:10;5.40;;;3.95;;
81056;SDS011;70563;50.084;14.468;2023-11-19T09:57:35;5.18;;;3.55;;
81056;SDS011;70563;50.084;14.468;2023-11-19T10:00:03;5.10;;;3.75;;
81056;SDS011;70563;50.084;14.468;2023-11-19T10:02:33;5.35;;;4.00;;
81056;SDS011;70563;50.084;14.468;2023-11-19T10:05:02;4.57;;;3.38;;
81056;SDS011;70563;50.084;14.468;2023-11-19T10:07:30;4.95;;;3.70;;
81056;SDS011;70563;50.084;14.468;2023-11-19T10:09:57;6.03;;;4.28;;
81056;SDS011;70563;50.084;14.468;2023-11-19T10:12:25;5.88;;;3.60;;
81056;SDS011;70563;50.084;14.468;2023-11-19T10:14:51;5.72;;;3.83;;
81056;SDS011;70563;50.084;14.468;2023-11-19T10:17:18;4.47;;;3.08;;
81056;SDS011;70563;50.084;14.468;2023-11-19T10:19:44;3.30;;;2.65;;
81056;SDS011;70563;50.084;14.468;2023-11-19T10:22:09;3.00;;;2.70;;
81056;SDS011;70563;50.084;14.468;2023-11-19T10:24:36;5.13;;;2.28;;
81056;SDS011;70563;50.084;14.468;2023-11-19T10:27:06;3.10;;;2.05;;
81056;SDS011;70563;50.084;14.468;2023-11-19T10:29:35;3.88;;;1.90;;
81056;SDS011;70563;50.084;14.468;2023-11-19T10:32:01;2.72;;;1.70;;
81056;SDS011;70563;50.084;14.468;2023-11-19T10:34:27;1.88;;;1.55;;
81056;SDS011;70563;50.084;14.468;2023-11-19T10:36:53;2.25;;;1.88;;
81056;SDS011;70563;50.084;14.468;2023-11-19T10:39:18;1.73;;;1.20;;
81056;SDS011;70563;50.084;14.468;2023-11-19T10:41:45;2.58;;;1.40;;
81056;SDS011;70563;50.084;14.468;2023-11-19T10:44:11;2.05;;;1.50;;
81056;SDS011;70563;50.084;14.468;2023-11-19T10:46:39;2.10;;;1.58;;
81056;SDS011;70563;50.084;14.468;2023-11-19T10:49:08;1.77;;;1.27;;
81056;SDS011;70563;50.084;14.468;2023-11-19T10:51:34;1.70;;;1.33;;
81056;SDS011;70563;50.084;14.468;2023-11-19T10:54:09;3.22;;;1.90;;
81056;SDS011;70563;50.084;14.468;2023-11-19T10:56:35;1.73;;;1.42;;
81056;SDS011;70563;50.084;14.468;2023-11-19T10:59:01;3.63;;;1.73;;
81056;SDS011;70563;50.084;14.468;2023-11-19T11:01:31;3.38;;;2.10;;
81056;SDS011;70563;50.084;14.468;2023-11-19T11:04:03;2.85;;;1.77;;
81056;SDS011;70563;50.084;14.468;2023-11-19T11:06:31;5.68;;;1.92;;
81056;SDS011;70563;50.084;14.468;2023-11-19T11:08:59;2.55;;;1.73;;
81056;SDS011;70563;50.084;14.468;2023-11-19T11:11:25;3.38;;;1.20;;
81056;SDS011;70563;50.084;14.468;2023-11-19T11:13:51;1.85;;;1.00;;
81056;SDS011;70563;50.084;14.468;2023-11-19T11:16:19;0.82;;;0.55;;
81056;SDS011;70563;50.084;14.468;2023-11-19T11:18:47;1.83;;;0.60;;
81056;SDS011;70563;50.084;14.468;2023-11-19T11:21:15;1.27;;;0.63;;
81056;SDS011;70563;50.084;14.468;2023-11-19T11:38:10;0.60;;;0.30;;
81056;SDS011;70563;50.084;14.468;2023-11-19T11:40:36;1.33;;;0.70;;
81056;SDS011;70563;50.084;14.468;2023-11-19T11:43:02;1.17;;;0.63;;
81056;SDS011;70563;50.084;14.468;2023-11-19T11:45:37;2.38;;;0.80;;
81056;SDS011;70563;50.084;14.468;2023-11-19T11:50:34;1.05;;;0.60;;
81056;SDS011;70563;50.084;14.468;2023-11-19T11:58:01;0.80;;;0.50;;
81056;SDS011;70563;50.084;14.468;2023-11-19T12:00:28;1.67;;;0.70;;
81056;SDS011;70563;50.084;14.468;2023-11-19T12:02:56;3.03;;;0.75;;
81056;SDS011;70563;50.084;14.468;2023-11-19T12:05:24;1.13;;;0.68;;
81056;SDS011;70563;50.084;14.468;2023-11-19T12:08:02;1.35;;;0.55;;
81056;SDS011;70563;50.084;14.468;2023-11-19T12:10:32;1.45;;;0.68;;
81056;SDS011;70563;50.084;14.468;2023-11-19T12:13:02;1.20;;;0.60;;
81056;SDS011;70563;50.084;14.468;2023-11-19T12:15:32;1.38;;;0.77;;
81056;SDS011;70563;50.084;14.468;2023-11-19T12:17:57;1.40;;;0.65;;
81056;SDS011;70563;50.084;14.468;2023-11-19T12:20:24;2.00;;;0.90;;
81056;SDS011;70563;50.084;14.468;2023-11-19T12:22:50;1.65;;;0.70;;
81056;SDS011;70563;50.084;14.468;2023-11-19T12:25:16;1.65;;;0.80;;
81056;SDS011;70563;50.084;14.468;2023-11-19T12:27:44;1.45;;;0.90;;
81056;SDS011;70563;50.084;14.468;2023-11-19T12:30:10;1.85;;;1.10;;
81056;SDS011;70563;50.084;14.468;2023-11-19T12:32:39;3.72;;;0.75;;
81056;SDS011;70563;50.084;14.468;2023-11-19T12:35:06;1.63;;;1.05;;
81056;SDS011;70563;50.084;14.468;2023-11-19T12:37:38;1.88;;;0.65;;
81056;SDS011;70563;50.084;14.468;2023-11-19T12:40:11;1.08;;;0.73;;
81056;SDS011;70563;50.084;14.468;2023-11-19T12:42:38;3.13;;;1.35;;
81056;SDS011;70563;50.084;14.468;2023-11-19T12:45:04;1.42;;;0.70;;
81056;SDS011;70563;50.084;14.468;2023-11-19T12:47:30;1.55;;;0.68;;
81056;SDS011;70563;50.084;14.468;2023-11-19T12:49:58;1.60;;;0.75;;
81056;SDS011;70563;50.084;14.468;2023-11-19T12:52:24;1.65;;;0.77;;
81056;SDS011;70563;50.084;14.468;2023-11-19T12:54:50;1.90;;;0.70;;
81056;SDS011;70563;50.084;14.468;2023-11-19T12:57:16;3.25;;;1.10;;
81056;SDS011;70563;50.084;14.468;2023-11-19T12:59:53;2.65;;;1.02;;
81056;SDS011;70563;50.084;14.468;2023-11-19T13:02:20;1.45;;;0.80;;
81056;SDS011;70563;50.084;14.468;2023-11-19T13:04:46;1.33;;;0.93;;
81056;SDS011;70563;50.084;14.468;2023-11-19T13:07:11;2.03;;;0.90;;
81056;SDS011;70563;50.084;14.468;2023-11-19T13:09:36;3.03;;;0.88;;
81056;SDS011;70563;50.084;14.468;2023-11-19T13:12:11;2.05;;;0.82;;
81056;SDS011;70563;50.084;14.468;2023-11-19T13:14:40;1.63;;;1.15;;
81056;SDS011;70563;50.084;14.468;2023-11-19T13:17:07;2.42;;;1.10;;
81056;SDS011;70563;50.084;14.468;2023-11-19T13:19:33;3.40;;;0.90;;
81056;SDS011;70563;50.084;14.468;2023-11-19T13:21:59;4.68;;;1.27;;
81056;SDS011;70563;50.084;14.468;2023-11-19T13:24:24;1.70;;;1.10;;
81056;SDS011;70563;50.084;14.468;2023-11-19T13:26:49;2.03;;;1.15;;
81056;SDS011;70563;50.084;14.468;2023-11-19T13:29:15;2.53;;;1.25;;
81056;SDS011;70563;50.084;14.468;2023-11-19T13:31:40;1.02;;;0.80;;
81056;SDS011;70563;50.084;14.468;2023-11-19T13:34:05;2.20;;;1.20;;
81056;SDS011;70563;50.084;14.468;2023-11-19T13:36:32;2.22;;;0.90;;
81056;SDS011;70563;50.084;14.468;2023-11-19T13:38:57;1.65;;;0.95;;
81056;SDS011;70563;50.084;14.468;2023-11-19T13:41:24;1.55;;;0.90;;
81056;SDS011;70563;50.084;14.468;2023-11-19T13:43:52;3.50;;;1.20;;
81056;SDS011;70563;50.084;14.468;2023-11-19T13:46:17;4.50;;;1.35;;
81056;SDS011;70563;50.084;14.468;2023-11-19T13:48:43;1.83;;;1.17;;
81056;SDS011;70563;50.084;14.468;2023-11-19T13:51:08;1.58;;;1.00;;
81056;SDS011;70563;50.084;14.468;2023-11-19T13:53:35;2.40;;;1.13;;
81056;SDS011;70563;50.084;14.468;2023-11-19T13:56:00;2.85;;;1.48;;
81056;SDS011;70563;50.084;14.468;2023-11-19T13:58:26;2.58;;;1.13;;
81056;SDS011;70563;50.084;14.468;2023-11-19T14:00:51;2.03;;;1.20;;
81056;SDS011;70563;50.084;14.468;2023-11-19T14:03:16;1.20;;;1.00;;
81056;SDS011;70563;50.084;14.468;2023-11-19T14:05:42;1.75;;;0.82;;
81056;SDS011;70563;50.084;14.468;2023-11-19T14:08:07;1.75;;;0.95;;
81056;SDS011;70563;50.084;14.468;2023-11-19T14:10:39;2.22;;;1.27;;
81056;SDS011;70563;50.084;14.468;2023-11-19T14:13:07;2.25;;;0.98;;
81056;SDS011;70563;50.084;14.468;2023-11-19T14:15:33;1.65;;;0.95;;
81056;SDS011;70563;50.084;14.468;2023-11-19T14:17:59;0.95;;;0.80;;
81056;SDS011;70563;50.084;14.468;2023-11-19T14:20:24;1.58;;;1.10;;
81056;SDS011;70563;50.084;14.468;2023-11-19T14:22:50;2.67;;;1.20;;
81056;SDS011;70563;50.084;14.468;2023-11-19T14:25:17;1.60;;;0.90;;
81056;SDS011;70563;50.084;14.468;2023-11-19T14:27:43;2.92;;;1.35;;
81056;SDS011;70563;50.084;14.468;2023-11-19T14:30:11;1.45;;;0.93;;
81056;SDS011;70563;50.084;14.468;2023-11-19T14:32:41;1.65;;;1.20;;
81056;SDS011;70563;50.084;14.468;2023-11-19T14:35:08;2.50;;;0.95;;
81056;SDS011;70563;50.084;14.468;2023-11-19T14:37:34;1.65;;;0.73;;
81056;SDS011;70563;50.084;14.468;2023-11-19T14:39:59;1.75;;;1.08;;
81056;SDS011;70563;50.084;14.468;2023-11-19T14:42:25;1.70;;;1.17;;
81056;SDS011;70563;50.084;14.468;2023-11-19T14:44:51;2.10;;;1.30;;
81056;SDS011;70563;50.084;14.468;2023-11-19T14:47:26;2.25;;;1.02;;
81056;SDS011;70563;50.084;14.468;2023-11-19T14:49:51;3.72;;;1.15;;